createdAt,value
2024-01-05T00:01:03.731Z,5.45
2024-01-05T00:04:05.224Z,3.75
2024-01-05T00:07:10.726Z,6.97
2024-01-05T00:10:12.203Z,6.57
2024-01-05T00:13:13.244Z,5.30
2024-01-05T00:16:24.592Z,2.45
2024-01-05T00:19:26.282Z,4.70
2024-01-05T00:22:27.610Z,5.47
2024-01-05T00:25:28.867Z,6.72
2024-01-05T00:28:29.767Z,6.32
2024-01-05T00:31:30.795Z,10.15
2024-01-05T00:34:32.466Z,5.10
2024-01-05T00:37:33.665Z,7.88
2024-01-05T00:40:35.070Z,5.07
2024-01-05T00:43:36.009Z,6.43
2024-01-05T00:46:40.717Z,8.55
2024-01-05T00:49:42.249Z,11.60
2024-01-05T00:52:43.552Z,6.22
2024-01-05T00:55:44.280Z,6.25
2024-01-05T00:58:45.729Z,4.70
2024-01-05T01:01:47.126Z,6.22
2024-01-05T01:04:48.064Z,5.65
2024-01-05T01:07:49.693Z,6.30
2024-01-05T01:10:50.640Z,10.15
2024-01-05T01:13:51.984Z,5.93
2024-01-05T01:16:53.353Z,7.13
2024-01-05T01:19:54.513Z,8.93
2024-01-05T01:22:55.500Z,7.75
2024-01-05T01:25:56.820Z,5.50
2024-01-05T01:29:01.038Z,5.35
2024-01-05T01:32:02.588Z,4.95
2024-01-05T01:35:04.765Z,4.35
2024-01-05T01:38:05.691Z,5.15
2024-01-05T01:41:06.733Z,9.38
2024-01-05T01:44:07.918Z,6.55
2024-01-05T01:47:09.210Z,4.97
2024-01-05T01:50:11.955Z,4.70
2024-01-05T01:53:16.352Z,9.30
2024-01-05T01:56:18.234Z,4.30
2024-01-05T01:59:19.376Z,11.35
2024-01-05T02:02:20.868Z,8.52
2024-01-05T02:05:21.994Z,7.10
2024-01-05T02:08:24.051Z,5.63
2024-01-05T02:11:25.320Z,15.05
2024-01-05T02:14:26.478Z,6.90
2024-01-05T02:17:35.461Z,4.18
2024-01-05T02:20:37.099Z,10.93
2024-01-05T02:23:38.547Z,8.18
2024-01-05T02:26:41.072Z,6.80
2024-01-05T02:29:42.175Z,5.32
2024-01-05T02:32:43.434Z,7.20
2024-01-05T02:35:44.750Z,11.80
2024-01-05T02:38:46.039Z,7.07
2024-01-05T02:41:47.453Z,5.22
2024-01-05T02:44:48.608Z,10.35
2024-01-05T02:47:52.780Z,10.00
2024-01-05T02:50:54.325Z,6.20
2024-01-05T02:53:55.273Z,10.63
2024-01-05T02:56:56.820Z,7.00
2024-01-05T02:59:58.035Z,6.65
2024-01-05T03:02:59.415Z,8.43
2024-01-05T03:06:00.852Z,7.35
2024-01-05T03:09:02.508Z,4.53
2024-01-05T03:12:03.953Z,7.22
2024-01-05T03:15:06.085Z,4.80
2024-01-05T03:18:07.085Z,5.90
2024-01-05T03:21:08.926Z,4.07
2024-01-05T03:24:10.443Z,3.85
2024-01-05T03:27:14.655Z,5.93
2024-01-05T03:30:16.370Z,2.88
2024-01-05T03:33:20.513Z,4.50
2024-01-05T03:36:21.791Z,5.35
2024-01-05T03:39:23.334Z,3.72
2024-01-05T03:42:25.474Z,3.30
2024-01-05T03:45:26.626Z,2.95
2024-01-05T03:48:28.308Z,8.60
2024-01-05T03:51:29.519Z,5.85
2024-01-05T03:54:31.136Z,5.10
2024-01-05T03:57:32.433Z,4.15
2024-01-05T04:00:34.720Z,6.63
2024-01-05T04:03:36.250Z,4.35
2024-01-05T04:06:37.449Z,4.32
2024-01-05T04:09:39.777Z,8.20
2024-01-05T04:12:40.878Z,4.90
2024-01-05T04:15:42.546Z,6.07
2024-01-05T04:18:44.005Z,5.43
2024-01-05T04:21:45.488Z,6.18
2024-01-05T04:24:46.705Z,6.50
2024-01-05T04:27:47.958Z,10.85
2024-01-05T04:30:49.245Z,4.70
2024-01-05T04:33:50.838Z,7.18
2024-01-05T04:36:52.168Z,4.82
2024-01-05T04:39:53.244Z,6.28
2024-01-05T04:42:55.246Z,5.82
2024-01-05T04:45:56.448Z,6.75
2024-01-05T04:48:57.434Z,11.63
2024-01-05T04:51:59.477Z,12.18
2024-01-05T04:55:00.541Z,6.43
2024-01-05T04:58:02.211Z,6.78
2024-01-05T05:01:03.786Z,6.93
2024-01-05T05:04:05.211Z,4.40
2024-01-05T05:07:06.650Z,9.18
2024-01-05T05:10:09.293Z,6.15
2024-01-05T05:13:11.335Z,8.20
2024-01-05T05:16:12.583Z,6.05
2024-01-05T05:19:14.251Z,9.05
2024-01-05T05:22:15.894Z,6.53
2024-01-05T05:25:17.339Z,5.70
2024-01-05T05:28:18.613Z,4.57
2024-01-05T05:31:19.770Z,5.22
2024-01-05T05:34:20.696Z,8.05
2024-01-05T05:37:22.048Z,7.43
2024-01-05T05:40:22.980Z,5.85
2024-01-05T05:43:24.233Z,4.88
2024-01-05T05:46:25.244Z,4.60
2024-01-05T05:49:26.825Z,6.75
2024-01-05T05:52:30.643Z,5.43
2024-01-05T05:55:32.122Z,4.18
2024-01-05T05:58:32.997Z,3.47
2024-01-05T06:01:34.382Z,7.22
2024-01-05T06:04:36.352Z,7.13
2024-01-05T06:07:37.522Z,6.45
2024-01-05T06:10:39.357Z,5.15
2024-01-05T06:13:40.566Z,5.78
2024-01-05T06:16:41.910Z,5.22
2024-01-05T06:19:44.438Z,8.50
2024-01-05T06:22:45.848Z,6.82
2024-01-05T06:25:47.316Z,13.30
2024-01-05T06:28:48.295Z,5.90
2024-01-05T06:31:49.115Z,7.07
2024-01-05T06:34:50.147Z,10.55
2024-01-05T06:37:51.323Z,5.32
2024-01-05T06:40:52.556Z,5.75
2024-01-05T06:43:53.400Z,5.05
2024-01-05T06:46:54.428Z,5.45
2024-01-05T06:49:56.489Z,9.82
2024-01-05T06:52:57.255Z,7.75
2024-01-05T06:55:58.708Z,7.15
2024-01-05T06:59:05.598Z,6.53
2024-01-05T07:02:07.112Z,5.38
2024-01-05T07:05:08.831Z,5.93
2024-01-05T07:08:09.784Z,6.45
2024-01-05T07:11:20.276Z,6.10
2024-01-05T07:14:21.525Z,6.57
2024-01-05T07:17:23.013Z,8.15
2024-01-05T07:20:24.370Z,8.13
2024-01-05T07:23:25.586Z,9.20
2024-01-05T07:26:27.068Z,5.85
2024-01-05T07:29:28.544Z,8.15
2024-01-05T07:32:30.042Z,9.30
2024-01-05T07:35:32.435Z,12.10
2024-01-05T07:38:37.412Z,11.68
2024-01-05T07:41:39.730Z,12.23
2024-01-05T07:44:41.144Z,11.68
2024-01-05T07:47:42.579Z,13.20
2024-01-05T07:50:43.934Z,12.13
2024-01-05T07:53:45.134Z,11.93
2024-01-05T07:56:46.361Z,8.52
2024-01-05T07:59:47.598Z,10.52
2024-01-05T08:02:50.788Z,8.07
2024-01-05T08:05:52.012Z,21.73
2024-01-05T08:08:53.498Z,9.23
2024-01-05T08:11:54.549Z,9.95
2024-01-05T08:14:55.730Z,13.00
2024-01-05T08:17:57.983Z,10.15
2024-01-05T08:20:59.394Z,19.77
2024-01-05T08:24:00.552Z,11.98
2024-01-05T08:27:01.992Z,13.57
2024-01-05T08:30:03.477Z,9.20
2024-01-05T08:33:04.852Z,9.30
2024-01-05T08:36:06.207Z,21.60
2024-01-05T08:39:07.845Z,10.65
2024-01-05T08:42:09.702Z,9.43
2024-01-05T08:45:11.364Z,12.45
2024-01-05T08:48:13.271Z,10.15
2024-01-05T08:51:14.836Z,17.58
2024-01-05T08:54:16.197Z,13.50
2024-01-05T08:57:17.324Z,14.35
2024-01-05T09:00:20.331Z,16.02
2024-01-05T09:03:21.737Z,12.45
2024-01-05T09:06:23.334Z,9.68
2024-01-05T09:09:24.553Z,14.68
2024-01-05T09:12:26.515Z,11.13
2024-01-05T09:15:28.340Z,10.27
2024-01-05T09:18:35.745Z,14.68
2024-01-05T09:24:38.854Z,15.05
2024-01-05T09:27:40.340Z,13.80
2024-01-05T09:30:41.615Z,15.00
2024-01-05T09:33:43.293Z,14.30
2024-01-05T09:36:44.347Z,13.80
2024-01-05T09:39:46.619Z,11.15
2024-01-05T09:42:52.666Z,9.75
2024-01-05T09:45:56.875Z,11.32
2024-01-05T09:48:59.948Z,14.93
2024-01-05T09:52:01.811Z,8.00
2024-01-05T09:55:02.890Z,11.30
2024-01-05T09:58:06.462Z,12.20
2024-01-05T10:01:22.553Z,10.32
2024-01-05T10:04:24.592Z,13.00
2024-01-05T10:07:25.668Z,12.75
2024-01-05T10:11:00.581Z,19.63
2024-01-05T10:14:09.542Z,19.42
2024-01-05T10:17:17.522Z,11.20
2024-01-05T10:20:19.143Z,13.75
2024-01-05T10:23:20.766Z,15.02
2024-01-05T10:26:21.783Z,11.15
2024-01-05T10:29:22.616Z,11.18
2024-01-05T10:32:26.896Z,12.60
2024-01-05T10:35:30.624Z,12.10
2024-01-05T10:38:33.500Z,10.23
2024-01-05T10:41:34.810Z,11.00
2024-01-05T10:44:36.810Z,15.68
2024-01-05T10:47:39.201Z,11.05
2024-01-05T10:50:43.107Z,11.82
2024-01-05T10:53:45.505Z,12.73
2024-01-05T10:56:47.706Z,10.25
2024-01-05T10:59:57.135Z,18.73
2024-01-05T11:03:10.636Z,13.40
2024-01-05T11:06:12.589Z,10.88
2024-01-05T11:09:46.427Z,10.40
2024-01-05T11:13:25.344Z,7.85
2024-01-05T11:16:40.921Z,10.32
2024-01-05T11:20:17.033Z,12.20
2024-01-05T11:23:21.054Z,13.30
2024-01-05T11:26:43.632Z,14.98
2024-01-05T11:29:52.853Z,14.25
2024-01-05T11:32:54.056Z,14.80
2024-01-05T11:35:55.459Z,16.08
2024-01-05T11:38:56.356Z,13.18
2024-01-05T11:41:57.349Z,11.38
2024-01-05T11:45:11.463Z,12.65
2024-01-05T11:48:35.963Z,15.07
2024-01-05T11:51:37.403Z,12.45
2024-01-05T11:54:38.928Z,15.73
2024-01-05T11:57:40.197Z,11.88
2024-01-05T12:00:46.230Z,14.43
2024-01-05T12:03:47.215Z,12.88
2024-01-05T12:06:53.780Z,12.55
2024-01-05T12:09:54.708Z,11.60
2024-01-05T12:12:56.742Z,13.80
2024-01-05T12:16:02.290Z,12.85
2024-01-05T12:19:04.295Z,13.77
2024-01-05T12:22:05.822Z,14.98
2024-01-05T12:25:07.493Z,11.27
2024-01-05T12:28:16.465Z,9.43
2024-01-05T12:31:19.321Z,12.23
2024-01-05T12:34:20.936Z,9.40
2024-01-05T12:37:22.437Z,10.55
2024-01-05T12:40:28.210Z,11.77
2024-01-05T12:43:29.780Z,8.30
2024-01-05T12:46:30.596Z,12.00
2024-01-05T12:49:37.097Z,13.20
2024-01-05T12:52:39.636Z,11.45
2024-01-05T12:55:41.202Z,7.57
2024-01-05T12:58:44.851Z,8.73
2024-01-05T13:01:45.830Z,9.90
2024-01-05T13:04:47.225Z,12.55
2024-01-05T13:07:48.664Z,8.82
2024-01-05T13:10:49.435Z,7.95
2024-01-05T13:13:54.262Z,12.82
2024-01-05T13:16:55.334Z,6.72
2024-01-05T13:19:56.356Z,7.97
2024-01-05T13:23:01.426Z,12.52
2024-01-05T13:26:03.311Z,13.98
2024-01-05T13:29:04.196Z,10.27
2024-01-05T13:32:06.002Z,12.25
2024-01-05T13:35:07.880Z,10.57
2024-01-05T13:38:08.805Z,11.13
2024-01-05T13:41:10.055Z,16.60
2024-01-05T13:44:11.400Z,9.57
2024-01-05T13:47:12.670Z,12.18
2024-01-05T13:50:13.958Z,12.95
2024-01-05T13:53:15.607Z,11.80
2024-01-05T13:56:16.609Z,10.73
2024-01-05T13:59:17.956Z,13.82
2024-01-05T14:02:20.807Z,14.88
2024-01-05T14:05:22.292Z,15.13
2024-01-05T14:08:24.365Z,12.73
2024-01-05T14:11:25.681Z,12.73
2024-01-05T14:14:27.058Z,13.68
2024-01-05T14:17:28.271Z,10.73
2024-01-05T14:20:29.747Z,14.10
2024-01-05T14:23:30.812Z,16.80
2024-01-05T14:26:31.732Z,13.15
2024-01-05T14:29:33.037Z,17.25
2024-01-05T14:32:34.405Z,20.02
2024-01-05T14:35:35.521Z,25.10
2024-01-05T14:38:38.373Z,21.25
2024-01-05T14:41:39.200Z,15.43
2024-01-05T14:44:40.952Z,15.07
2024-01-05T14:47:43.009Z,17.38
2024-01-05T14:50:44.462Z,14.82
2024-01-05T14:53:45.504Z,16.85
2024-01-05T14:56:46.898Z,15.25
2024-01-05T14:59:47.785Z,14.75
2024-01-05T15:02:49.203Z,14.05
2024-01-05T15:05:50.082Z,16.20
2024-01-05T15:08:51.361Z,14.80
2024-01-05T15:11:52.664Z,14.52
2024-01-05T15:14:53.825Z,15.85
2024-01-05T15:17:54.983Z,16.50
2024-01-05T15:20:55.986Z,16.88
2024-01-05T15:23:56.879Z,18.50
2024-01-05T15:26:58.193Z,17.33
2024-01-05T15:29:59.205Z,19.05
2024-01-05T15:33:00.763Z,19.67
2024-01-05T15:36:02.126Z,18.50
2024-01-05T15:39:03.469Z,17.15
2024-01-05T15:42:05.131Z,20.92
2024-01-05T15:45:06.662Z,16.00
2024-01-05T15:48:08.268Z,14.65
2024-01-05T15:51:15.718Z,16.98
2024-01-05T15:57:20.137Z,14.63
2024-01-05T16:00:21.855Z,12.55
2024-01-05T16:03:24.189Z,15.07
2024-01-05T16:06:25.733Z,16.17
2024-01-05T16:09:26.961Z,12.65
2024-01-05T16:12:28.368Z,15.52
2024-01-05T16:15:29.671Z,14.23
2024-01-05T16:18:31.205Z,13.40
2024-01-05T16:21:34.399Z,16.98
2024-01-05T16:24:36.881Z,13.38
2024-01-05T16:27:38.198Z,17.75
2024-01-05T16:30:39.763Z,21.92
2024-01-05T16:33:41.218Z,18.02
2024-01-05T16:36:42.466Z,12.23
2024-01-05T16:39:46.062Z,18.10
2024-01-05T16:42:47.640Z,17.63
2024-01-05T16:45:48.962Z,18.98
2024-01-05T16:48:54.808Z,19.30
2024-01-05T16:51:56.971Z,16.80
2024-01-05T16:54:58.051Z,14.00
2024-01-05T16:57:59.071Z,15.77
2024-01-05T17:01:00.469Z,18.92
2024-01-05T17:04:08.242Z,16.05
2024-01-05T17:10:10.897Z,18.38
2024-01-05T17:13:11.792Z,20.05
2024-01-05T17:16:12.658Z,18.45
2024-01-05T17:19:14.098Z,17.73
2024-01-05T17:22:15.338Z,23.30
2024-01-05T17:25:16.692Z,15.82
2024-01-05T17:28:17.836Z,19.58
2024-01-05T17:31:18.845Z,16.40
2024-01-05T17:34:24.360Z,17.55
2024-01-05T17:37:25.183Z,20.77
2024-01-05T17:40:26.550Z,15.80
2024-01-05T17:43:27.936Z,15.07
2024-01-05T17:46:29.341Z,20.88
2024-01-05T17:49:30.229Z,21.20
2024-01-05T17:52:31.563Z,18.50
2024-01-05T17:55:32.976Z,18.63
2024-01-05T17:58:34.014Z,16.92
2024-01-05T18:01:47.406Z,18.48
2024-01-05T18:04:48.704Z,22.13
2024-01-05T18:07:54.456Z,23.10
2024-01-05T18:10:55.357Z,18.55
2024-01-05T18:13:56.881Z,20.08
2024-01-05T18:16:58.018Z,21.10
2024-01-05T18:19:59.276Z,18.20
2024-01-05T18:23:00.769Z,18.70
2024-01-05T18:26:02.009Z,15.88
2024-01-05T18:29:17.042Z,22.30
2024-01-05T18:32:26.257Z,19.30
2024-01-05T18:35:29.762Z,23.92
2024-01-05T18:38:31.225Z,27.88
2024-01-05T18:41:35.153Z,28.08
2024-01-05T18:44:36.200Z,26.17
2024-01-05T18:47:37.442Z,32.67
2024-01-05T18:50:41.701Z,32.40
2024-01-05T18:53:43.430Z,24.17
2024-01-05T18:56:44.755Z,28.15
2024-01-05T18:59:46.666Z,22.95
2024-01-05T19:02:47.839Z,22.55
2024-01-05T19:05:49.413Z,26.85
2024-01-05T19:08:50.732Z,24.55
2024-01-05T19:11:52.958Z,30.65
2024-01-05T19:14:54.422Z,37.03
2024-01-05T19:17:55.639Z,29.98
2024-01-05T19:20:56.862Z,34.03
2024-01-05T19:23:58.213Z,27.33
2024-01-05T19:27:00.040Z,34.58
2024-01-05T19:30:01.366Z,30.95
2024-01-05T19:33:02.990Z,30.08
2024-01-05T19:36:14.133Z,30.20
2024-01-05T19:39:15.636Z,25.98
2024-01-05T19:42:19.805Z,36.30
2024-01-05T19:45:20.793Z,39.35
2024-01-05T19:48:22.466Z,37.45
2024-01-05T19:51:23.800Z,30.40
2024-01-05T19:54:24.700Z,45.20
2024-01-05T19:57:26.058Z,30.50
2024-01-05T20:00:27.128Z,39.67
2024-01-05T20:03:28.596Z,37.28
2024-01-05T20:06:29.889Z,40.90
2024-01-05T20:09:31.086Z,41.05
2024-01-05T20:12:32.398Z,40.38
2024-01-05T20:15:35.035Z,37.83
2024-01-05T20:18:36.300Z,39.58
2024-01-05T20:21:37.727Z,35.33
2024-01-05T20:24:38.732Z,34.50
2024-01-05T20:27:43.830Z,40.75
2024-01-05T20:30:46.846Z,37.72
2024-01-05T20:33:49.922Z,40.15
2024-01-05T20:36:54.245Z,41.25
2024-01-05T20:39:55.437Z,38.90
2024-01-05T20:42:59.677Z,46.40
2024-01-05T20:46:01.336Z,46.20
2024-01-05T20:49:03.039Z,43.95
2024-01-05T20:52:04.770Z,40.40
2024-01-05T20:55:06.483Z,51.03
2024-01-05T20:58:08.150Z,54.60
2024-01-05T21:01:10.764Z,46.90
2024-01-05T21:04:15.643Z,50.75
2024-01-05T21:07:18.253Z,43.45
2024-01-05T21:10:19.222Z,41.47
2024-01-05T21:13:20.720Z,49.70
2024-01-05T21:16:21.964Z,46.83
2024-01-05T21:19:23.438Z,46.92
2024-01-05T21:22:25.871Z,48.08
2024-01-05T21:25:30.787Z,56.75
2024-01-05T21:28:32.350Z,57.30
2024-01-05T21:31:33.363Z,53.40
2024-01-05T21:34:34.792Z,58.40
2024-01-05T21:37:37.070Z,57.60
2024-01-05T21:40:38.262Z,67.28
2024-01-05T21:43:39.359Z,66.78
2024-01-05T21:46:40.723Z,73.78
2024-01-05T21:49:41.635Z,77.55
2024-01-05T21:52:43.011Z,77.05
2024-01-05T21:55:44.500Z,78.25
2024-01-05T21:58:45.891Z,66.38
2024-01-05T22:01:48.502Z,81.88
2024-01-05T22:04:49.863Z,72.70
2024-01-05T22:07:51.180Z,71.80
2024-01-05T22:10:52.770Z,68.70
2024-01-05T22:13:53.844Z,79.13
2024-01-05T22:16:56.092Z,73.97
2024-01-05T22:19:57.098Z,73.00
2024-01-05T22:22:58.449Z,76.80
2024-01-05T22:25:59.353Z,77.90
2024-01-05T22:29:05.013Z,78.82
2024-01-05T22:32:06.994Z,88.55
2024-01-05T22:35:09.224Z,77.15
2024-01-05T22:38:10.655Z,86.20
2024-01-05T22:41:13.520Z,90.30
2024-01-05T22:44:14.796Z,80.35
2024-01-05T22:47:16.254Z,111.18
2024-01-05T22:50:17.702Z,144.90
2024-01-05T22:53:19.183Z,148.52
2024-01-05T22:56:20.682Z,116.45
2024-01-05T22:59:22.077Z,82.03
2024-01-05T23:02:23.453Z,74.22
2024-01-05T23:05:24.840Z,67.70
2024-01-05T23:08:26.975Z,79.70
2024-01-05T23:11:28.580Z,77.90
2024-01-05T23:14:29.728Z,62.45
2024-01-05T23:17:31.393Z,76.75
2024-01-05T23:20:32.785Z,62.33
2024-01-05T23:23:36.054Z,69.03
2024-01-05T23:26:37.074Z,68.15
2024-01-05T23:29:38.445Z,87.53
2024-01-05T23:32:39.553Z,78.85
2024-01-05T23:35:40.927Z,55.25
2024-01-05T23:38:42.006Z,60.65
2024-01-05T23:41:42.979Z,63.28
2024-01-05T23:44:44.063Z,82.25
2024-01-05T23:47:45.075Z,76.35
2024-01-05T23:50:46.590Z,62.95
2024-01-05T23:53:47.913Z,66.30
2024-01-05T23:56:48.858Z,90.47
2024-01-05T23:59:50.598Z,91.32
